Time;durP1;ratioP1;P1;durP2;ratioP2;P2;SDS_P1;SDS_P2;PMS_P1;PMS_P2;Temp;Humidity;BMP_temperature;BMP_pressure;BME280_temperature;BME280_humidity;BME280_pressure;Samples;Min_cycle;Max_cycle;Signal;HPM_P1;HPM_P2
2023/11/09 00:12:43;;;;;;;11.50;6.20;;;;;;;10.37;100.00;100008.10;675204;1264;139625;-81
2023/11/09 00:27:46;;;;;;;11.30;6.30;;;;;;;10.32;100.00;100008.57;675578;1263;140334;-81
2023/11/09 00:42:50;;;;;;;13.10;6.00;;;;;;;10.13;100.00;100010.76;681538;1262;140396;-80
2023/11/09 00:57:53;;;;;;;11.20;5.80;;;;;;;9.78;100.00;100010.13;676481;1275;140092;-80
2023/11/09 01:12:56;;;;;;;10.70;6.90;;;;;;;9.28;100.00;100008.83;673497;1259;140145;-80
2023/11/09 01:28:02;;;;;;;13.80;7.00;;;;;;;9.00;100.00;100008.31;677274;1263;139247;-80
2023/11/09 01:43:15;;;;;;;12.80;7.30;;;;;;;8.68;100.00;100003.70;676914;1260;141401;-80
2023/11/09 01:58:19;;;;;;;23.00;14.70;;;;;;;8.46;100.00;100005.15;678747;1262;139825;-80
2023/11/09 02:13:22;;;;;;;23.90;11.20;;;;;;;8.32;100.00;100005.27;675008;1263;141615;-80
2023/11/09 02:28:26;;;;;;;17.40;11.80;;;;;;;8.10;100.00;100004.08;680781;1259;140435;-81
2023/11/09 02:43:30;;;;;;;31.30;15.80;;;;;;;7.92;100.00;100012.00;677100;1260;139616;-81
2023/11/09 02:58:36;;;;;;;24.70;13.90;;;;;;;7.64;100.00;100009.85;677394;1262;139577;-80
2023/11/09 03:13:40;;;;;;;32.30;16.10;;;;;;;7.45;100.00;100007.83;677508;1261;139891;-80
2023/11/09 03:28:44;;;;;;;24.50;15.60;;;;;;;7.05;100.00;99999.55;673934;1260;143403;-80
2023/11/09 03:43:47;;;;;;;37.10;18.70;;;;;;;6.79;100.00;99991.65;681652;1260;139699;-81
2023/11/09 03:58:51;;;;;;;32.20;18.00;;;;;;;6.68;100.00;99987.95;670896;1261;139601;-80
2023/11/09 04:13:54;;;;;;;32.70;19.00;;;;;;;6.81;100.00;99987.45;680042;1259;140495;-81
2023/11/09 04:28:59;;;;;;;28.90;15.30;;;;;;;6.72;100.00;99974.94;676585;1259;139644;-80
2023/11/09 04:44:03;;;;;;;26.30;14.30;;;;;;;6.53;100.00;99962.33;681326;1259;139656;-79
2023/11/09 05:14:29;;;;;;;27.20;13.80;;;;;;;6.62;100.00;99968.96;678871;1260;139170;-80
2023/11/09 05:29:33;;;;;;;32.50;15.70;;;;;;;6.52;100.00;99969.83;675202;1264;140426;-80
2023/11/09 05:44:36;;;;;;;28.10;15.30;;;;;;;6.42;100.00;99967.97;681570;1262;140197;-82
2023/11/09 05:59:40;;;;;;;26.70;14.80;;;;;;;6.36;100.00;99971.22;677430;1262;140075;-80
2023/11/09 06:14:43;;;;;;;39.90;20.40;;;;;;;6.36;100.00;99958.58;679780;1260;139807;-80
2023/11/09 06:29:47;;;;;;;39.50;19.60;;;;;;;6.40;100.00;99951.81;675736;1266;139799;-80
2023/11/09 06:44:52;;;;;;;34.90;19.20;;;;;;;6.63;100.00;99957.38;677439;1262;139552;-80
2023/11/09 06:59:55;;;;;;;109.60;46.50;;;;;;;6.99;100.00;99962.07;672990;1267;139705;-80
2023/11/09 07:14:59;;;;;;;45.60;20.50;;;;;;;7.26;100.00;99964.19;674320;1276;140441;-81
2023/11/09 07:30:03;;;;;;;38.60;22.20;;;;;;;7.44;100.00;99960.77;672165;1261;139422;-81
2023/11/09 07:45:10;;;;;;;25.40;13.80;;;;;;;7.78;100.00;99965.40;676426;1263;140088;-82
2023/11/09 08:00:15;;;;;;;20.30;10.90;;;;;;;8.14;100.00;99957.61;675774;1263;139613;-82
2023/11/09 08:15:19;;;;;;;20.30;12.00;;;;;;;8.35;100.00;99950.96;674084;1262;140550;-82
2023/11/09 08:30:27;;;;;;;19.40;11.30;;;;;;;8.62;99.98;99948.59;676430;1263;139309;-82
2023/11/09 08:45:31;;;;;;;22.10;11.80;;;;;;;9.53;97.37;99932.16;672348;1264;167254;-81
2023/11/09 09:00:35;;;;;;;16.50;9.00;;;;;;;10.39;90.66;99910.04;675576;1263;139820;-81
2023/11/09 09:15:40;;;;;;;16.00;8.30;;;;;;;12.85;82.49;99900.02;675452;1268;139525;-82
2023/11/09 09:30:44;;;;;;;12.10;8.80;;;;;;;12.65;76.14;99885.56;670594;1260;139478;-81
2023/11/09 09:45:57;;;;;;;18.60;8.50;;;;;;;12.29;76.97;99879.64;674182;1261;139114;-81
2023/11/09 10:01:03;;;;;;;21.50;12.00;;;;;;;13.48;73.56;99864.14;671515;1263;138741;-82
2023/11/09 10:16:06;;;;;;;15.20;7.50;;;;;;;14.50;70.67;99843.80;676979;1262;139489;-82
2023/11/09 10:31:28;;;;;;;11.80;7.60;;;;;;;14.03;70.12;99831.98;676273;1263;139539;-81
2023/11/09 10:46:34;;;;;;;16.30;10.10;;;;;;;14.33;68.87;99823.30;675031;1276;139791;-81
2023/11/09 11:01:43;;;;;;;8.00;4.90;;;;;;;14.32;68.95;99797.79;680849;1262;140544;-82
2023/11/09 11:16:51;;;;;;;11.30;7.40;;;;;;;13.19;69.32;99785.19;682163;1264;138759;-81
2023/11/09 11:31:56;;;;;;;17.60;10.40;;;;;;;13.26;70.54;99783.06;679241;1260;138790;-81
2023/11/09 11:47:09;;;;;;;16.10;10.50;;;;;;;13.07;71.33;99769.95;676751;1262;139240;-83
2023/11/09 12:02:14;;;;;;;20.70;10.90;;;;;;;12.83;71.69;99750.87;677006;1263;139478;-80
2023/11/09 12:17:17;;;;;;;12.30;5.70;;;;;;;12.72;72.72;99746.08;679801;1263;139858;-79
2023/11/09 12:32:20;;;;;;;17.70;8.40;;;;;;;12.68;72.43;99737.21;680196;1261;139154;-81
2023/11/09 12:47:25;;;;;;;16.70;10.30;;;;;;;12.50;73.17;99726.48;674332;1270;139270;-81
2023/11/09 13:02:42;;;;;;;25.40;12.00;;;;;;;12.18;73.73;99704.05;677916;1263;139816;-81
2023/11/09 13:17:50;;;;;;;20.50;9.30;;;;;;;12.03;74.40;99696.34;681153;1263;139485;-80
2023/11/09 13:33:02;;;;;;;55.40;26.50;;;;;;;12.09;74.91;99683.89;681004;1260;139990;-80
2023/11/09 13:48:21;;;;;;;33.80;22.50;;;;;;;12.15;74.82;99658.91;681426;1263;139775;-80
2023/11/09 14:03:25;;;;;;;;;;;;;;;12.04;75.52;99645.41;679371;1264;139071;-82
2023/11/09 14:33:33;;;;;;;17.80;10.20;;;;;;;11.94;77.00;99636.04;678984;1268;139468;-78
2023/11/09 14:48:39;;;;;;;38.90;19.20;;;;;;;11.79;78.17;99628.27;678390;1258;139115;-79
2023/11/09 15:03:45;;;;;;;25.80;14.20;;;;;;;11.57;80.38;99620.36;673730;1263;139031;-78
2023/11/09 15:18:50;;;;;;;26.50;15.50;;;;;;;11.52;82.19;99598.63;676404;1261;139406;-79
2023/11/09 15:33:54;;;;;;;25.20;15.80;;;;;;;11.48;82.54;99587.30;674706;1261;139121;-79
2023/11/09 15:48:59;;;;;;;41.70;19.90;;;;;;;11.31;83.54;99567.92;674782;1264;139823;-78
2023/11/09 16:04:04;;;;;;;77.10;32.70;;;;;;;11.19;83.71;99571.73;676161;1263;139113;-79
2023/11/09 16:19:08;;;;;;;123.70;69.80;;;;;;;11.02;84.25;99575.19;680342;1262;139598;-79
2023/11/09 16:34:12;;;;;;;42.00;21.60;;;;;;;10.86;83.94;99563.02;675579;1263;139342;-79
2023/11/09 16:49:16;;;;;;;25.10;11.50;;;;;;;10.85;84.35;99555.18;673692;1264;139679;-78
2023/11/09 17:04:22;;;;;;;31.30;16.20;;;;;;;10.81;84.13;99547.70;673410;1263;139237;-80
2023/11/09 17:19:27;;;;;;;163.80;73.70;;;;;;;10.78;83.39;99547.47;674910;1260;139752;-79
2023/11/09 17:34:30;;;;;;;72.50;48.60;;;;;;;10.87;82.27;99530.73;672801;1259;139212;-79
2023/11/09 17:49:35;;;;;;;25.80;11.80;;;;;;;10.72;82.45;99514.93;671280;1259;139831;-79
2023/11/09 18:04:39;;;;;;;23.40;12.20;;;;;;;10.71;82.49;99506.63;673452;1276;139759;-79
2023/11/09 18:19:44;;;;;;;28.30;15.00;;;;;;;10.51;83.29;99497.93;678376;1262;139568;-78
2023/11/09 18:34:48;;;;;;;40.90;23.90;;;;;;;10.43;84.24;99483.83;674908;1275;139086;-79
2023/11/09 18:49:53;;;;;;;27.20;16.80;;;;;;;10.27;84.77;99478.91;676038;1260;139466;-79
2023/11/09 19:05:01;;;;;;;;;;;;;;;10.14;85.21;99472.16;676985;1263;139118;-79
2023/11/09 19:20:07;;;;;;;47.30;20.10;;;;;;;10.09;85.81;99460.63;673734;1263;125084;-78
2023/11/09 19:35:11;;;;;;;37.30;16.00;;;;;;;10.08;85.67;99447.58;672900;1262;139206;-79
2023/11/09 19:50:14;;;;;;;22.20;11.50;;;;;;;10.03;85.97;99447.27;679221;1261;140789;-79
2023/11/09 20:05:18;;;;;;;27.30;20.90;;;;;;;9.99;86.98;99430.70;677374;1262;139861;-79
2023/11/09 20:20:37;;;;;;;33.80;16.70;;;;;;;9.84;87.98;99431.31;676754;1263;139652;-79
2023/11/09 20:36:14;;;;;;;22.10;12.30;;;;;;;9.84;88.33;99432.83;682396;1260;139529;-79
2023/11/09 20:51:51;;;;;;;20.70;11.30;;;;;;;9.63;89.59;99423.38;670869;1261;10137685;-80
2023/11/09 21:07:28;;;;;;;23.80;11.70;;;;;;;9.51;89.98;99406.38;676700;1260;139466;-78
2023/11/09 21:23:05;;;;;;;21.40;11.20;;;;;;;9.45;90.93;99381.45;679669;1262;140098;-79
2023/11/09 21:38:42;;;;;;;28.10;12.50;;;;;;;9.36;90.92;99372.90;677390;1259;139071;-80
2023/11/09 21:54:19;;;;;;;19.70;11.80;;;;;;;9.15;92.46;99377.90;678084;1257;139113;-79
2023/11/09 22:09:56;;;;;;;20.50;11.60;;;;;;;9.11;93.24;99377.27;673809;1261;139914;-79
2023/11/09 22:25:33;;;;;;;19.20;11.10;;;;;;;9.21;93.40;99385.70;669562;1260;139075;-79
2023/11/09 22:41:11;;;;;;;18.70;11.30;;;;;;;9.37;94.12;99392.34;677468;1263;139741;-79
2023/11/09 22:56:50;;;;;;;19.70;11.80;;;;;;;9.59;92.91;99397.80;678072;1262;139001;-79
2023/11/09 23:12:26;;;;;;;20.00;11.90;;;;;;;9.51;93.77;99394.48;679678;1260;141466;-79
2023/11/09 23:28:04;;;;;;;22.40;13.30;;;;;;;9.40;94.16;99375.10;674301;1263;139510;-79
2023/11/09 23:43:42;;;;;;;18.40;12.10;;;;;;;9.34;94.46;99373.77;680049;1258;139232;-79
2023/11/09 23:59:18;;;;;;;22.70;12.30;;;;;;;9.19;95.37;99350.69;679231;1257;139035;-79
